createdAt,value
2023-04-04T00:01:12.814Z,90.59
2023-04-04T00:03:41.554Z,90.74
2023-04-04T00:06:11.678Z,90.45
2023-04-04T00:08:39.830Z,90.95
2023-04-04T00:11:08.067Z,90.89
2023-04-04T00:13:36.577Z,90.95
2023-04-04T00:16:05.390Z,91.01
2023-04-04T00:18:34.193Z,91.02
2023-04-04T00:21:02.703Z,91.07
2023-04-04T00:23:32.235Z,90.91
2023-04-04T00:26:00.728Z,90.90
2023-04-04T00:28:28.909Z,90.89
2023-04-04T00:30:57.507Z,91.11
2023-04-04T00:33:26.125Z,91.31
2023-04-04T00:35:54.872Z,91.26
2023-04-04T00:38:23.399Z,91.27
2023-04-04T00:40:53.124Z,91.15
2023-04-04T00:43:21.887Z,91.47
2023-04-04T00:45:51.158Z,91.57
2023-04-04T00:48:24.323Z,91.72
2023-04-04T00:50:53.489Z,91.60
2023-04-04T00:53:22.111Z,91.55
2023-04-04T00:55:52.881Z,91.59
2023-04-04T00:58:21.560Z,92.06
2023-04-04T01:00:50.136Z,91.78
2023-04-04T01:03:19.437Z,91.77
2023-04-04T01:05:48.312Z,92.13
2023-04-04T01:08:21.753Z,92.07
2023-04-04T01:10:52.261Z,92.15
2023-04-04T01:13:22.500Z,92.22
2023-04-04T01:15:53.010Z,92.18
2023-04-04T01:18:24.995Z,92.32
2023-04-04T01:21:00.763Z,92.19
2023-04-04T01:23:44.595Z,92.19
2023-04-04T01:26:15.597Z,92.03
2023-04-04T01:28:44.623Z,92.50
2023-04-04T01:31:20.221Z,92.15
2023-04-04T01:33:58.868Z,92.51
2023-04-04T01:36:33.033Z,92.54
2023-04-04T01:39:11.128Z,92.22
2023-04-04T01:41:41.637Z,92.36
2023-04-04T01:44:11.107Z,92.08
2023-04-04T01:46:40.199Z,92.22
2023-04-04T01:49:10.959Z,92.71
2023-04-04T01:51:41.413Z,92.69
2023-04-04T01:54:10.705Z,92.87
2023-04-04T01:56:40.562Z,92.47
2023-04-04T01:59:09.122Z,92.22
2023-04-04T02:01:38.612Z,92.28
2023-04-04T02:04:08.521Z,92.19
2023-04-04T02:06:37.259Z,92.35
2023-04-04T02:09:07.231Z,92.75
2023-04-04T02:11:36.492Z,92.82
2023-04-04T02:14:06.559Z,92.46
2023-04-04T02:16:35.072Z,92.65
2023-04-04T02:19:03.897Z,92.50
2023-04-04T02:21:37.216Z,92.68
2023-04-04T02:24:06.342Z,92.72
2023-04-04T02:26:34.881Z,92.84
2023-04-04T02:29:04.990Z,92.97
2023-04-04T02:31:33.586Z,92.85
2023-04-04T02:34:02.647Z,93.15
2023-04-04T02:36:32.503Z,93.00
2023-04-04T02:39:02.352Z,92.92
2023-04-04T02:41:32.274Z,92.73
2023-04-04T02:44:00.738Z,92.81
2023-04-04T02:46:30.326Z,93.24
2023-04-04T02:49:04.294Z,92.91
2023-04-04T02:51:34.081Z,93.05
2023-04-04T02:54:03.148Z,93.10
2023-04-04T02:56:39.221Z,93.31
2023-04-04T02:59:07.852Z,93.04
2023-04-04T03:01:37.896Z,93.17
2023-04-04T03:04:07.118Z,93.25
2023-04-04T03:06:37.566Z,93.35
2023-04-04T03:09:06.221Z,93.11
2023-04-04T03:11:34.917Z,93.51
2023-04-04T03:14:04.029Z,93.12
2023-04-04T03:16:40.889Z,93.21
2023-04-04T03:19:09.512Z,93.25
2023-04-04T03:21:37.881Z,93.46
2023-04-04T03:24:06.872Z,93.30
2023-04-04T03:26:35.384Z,93.52
2023-04-04T03:29:05.422Z,93.47
2023-04-04T03:31:34.594Z,93.38
2023-04-04T03:34:04.391Z,93.82
2023-04-04T03:36:32.924Z,93.76
2023-04-04T03:39:01.747Z,93.64
2023-04-04T03:41:31.199Z,93.67
2023-04-04T03:43:59.665Z,93.89
2023-04-04T03:46:28.315Z,94.00
2023-04-04T03:48:56.988Z,94.00
2023-04-04T03:51:27.428Z,93.38
2023-04-04T03:53:57.088Z,93.97
2023-04-04T03:56:25.614Z,93.44
2023-04-04T03:58:55.882Z,93.86
2023-04-04T04:01:24.858Z,93.75
2023-04-04T04:03:53.469Z,93.94
2023-04-04T04:06:22.030Z,93.53
2023-04-04T04:08:52.276Z,94.05
2023-04-04T04:11:20.985Z,94.07
2023-04-04T04:13:49.562Z,94.35
2023-04-04T04:16:18.170Z,93.57
2023-04-04T04:18:47.369Z,94.13
2023-04-04T04:21:22.461Z,93.91
2023-04-04T04:23:52.325Z,93.93
2023-04-04T04:26:21.227Z,94.01
2023-04-04T04:28:49.753Z,94.16
2023-04-04T04:31:24.352Z,94.04
2023-04-04T04:33:54.345Z,93.52
2023-04-04T04:36:29.405Z,93.96
2023-04-04T04:39:19.528Z,93.82
2023-04-04T04:42:11.884Z,93.80
2023-04-04T04:44:48.161Z,93.51
2023-04-04T04:47:17.070Z,94.05
2023-04-04T04:49:48.020Z,93.53
2023-04-04T04:52:19.269Z,93.81
2023-04-04T04:54:50.898Z,94.11
2023-04-04T04:57:19.480Z,94.31
2023-04-04T04:59:48.554Z,93.77
2023-04-04T05:02:17.798Z,93.82
2023-04-04T05:04:48.427Z,93.75
2023-04-04T05:07:18.915Z,94.39
2023-04-04T05:09:49.990Z,94.26
2023-04-04T05:12:19.434Z,93.64
2023-04-04T05:14:50.829Z,94.19
2023-04-04T05:17:19.468Z,94.49
2023-04-04T05:19:48.088Z,94.51
2023-04-04T05:22:21.779Z,94.09
2023-04-04T05:24:54.446Z,94.50
2023-04-04T05:27:26.090Z,94.18
2023-04-04T05:29:59.147Z,94.63
2023-04-04T05:32:36.733Z,94.40
2023-04-04T05:35:11.552Z,94.43
2023-04-04T05:37:43.510Z,94.78
2023-04-04T05:40:17.767Z,94.57
2023-04-04T05:42:58.806Z,94.56
2023-04-04T05:45:34.074Z,94.80
2023-04-04T05:48:02.769Z,94.16
2023-04-04T05:50:36.328Z,95.05
2023-04-04T05:53:06.982Z,94.56
2023-04-04T05:55:36.570Z,94.78
2023-04-04T05:58:05.779Z,94.53
2023-04-04T06:00:45.648Z,94.40
2023-04-04T06:03:14.836Z,94.94
2023-04-04T06:05:45.180Z,94.32
2023-04-04T06:08:14.108Z,94.67
2023-04-04T06:10:43.658Z,94.73
2023-04-04T06:13:12.333Z,94.72
2023-04-04T06:15:43.254Z,94.97
2023-04-04T06:18:11.907Z,94.23
2023-04-04T06:20:41.540Z,94.30
2023-04-04T06:23:10.307Z,94.31
2023-04-04T06:25:43.872Z,94.63
2023-04-04T06:28:15.773Z,94.62
2023-04-04T06:30:45.290Z,94.20
2023-04-04T06:33:15.823Z,94.18
2023-04-04T06:35:48.621Z,94.02
2023-04-04T06:38:18.188Z,94.33
2023-04-04T06:40:48.653Z,94.08
2023-04-04T06:43:17.194Z,94.24
2023-04-04T06:45:47.729Z,93.97
2023-04-04T06:48:16.482Z,94.21
2023-04-04T06:50:45.160Z,95.35
2023-04-04T06:53:15.626Z,96.51
2023-04-04T06:55:44.690Z,97.42
2023-04-04T06:58:14.233Z,98.20
2023-04-04T07:00:42.667Z,98.38
2023-04-04T07:03:11.671Z,98.17
2023-04-04T07:05:41.235Z,98.03
2023-04-04T07:08:09.757Z,97.30
2023-04-04T07:10:39.817Z,97.04
2023-04-04T07:13:10.003Z,96.73
2023-04-04T07:15:39.661Z,96.15
2023-04-04T07:18:09.046Z,96.13
2023-04-04T07:20:37.960Z,96.13
2023-04-04T07:23:06.830Z,96.09
2023-04-04T07:25:35.334Z,96.16
2023-04-04T07:28:12.412Z,96.13
2023-04-04T07:30:43.179Z,96.00
2023-04-04T07:33:12.646Z,95.89
2023-04-04T07:35:42.472Z,95.12
2023-04-04T07:38:11.203Z,95.00
2023-04-04T07:40:39.541Z,95.27
2023-04-04T07:43:08.154Z,94.44
2023-04-04T07:45:36.341Z,93.93
2023-04-04T07:48:06.545Z,93.64
2023-04-04T07:50:35.090Z,93.22
2023-04-04T07:53:03.596Z,92.72
2023-04-04T07:55:31.779Z,91.55
2023-04-04T07:58:00.283Z,90.78
2023-04-04T08:00:28.891Z,90.55
2023-04-04T08:02:59.000Z,90.01
2023-04-04T08:05:28.913Z,89.27
2023-04-04T08:07:57.571Z,88.87
2023-04-04T08:10:26.100Z,88.12
2023-04-04T08:12:54.600Z,85.51
2023-04-04T08:15:23.138Z,83.36
2023-04-04T08:17:51.639Z,80.95
2023-04-04T08:20:20.436Z,79.25
2023-04-04T08:22:50.272Z,78.04
2023-04-04T08:25:19.900Z,77.04
2023-04-04T08:27:48.420Z,76.52
2023-04-04T08:30:17.333Z,75.11
2023-04-04T08:32:46.064Z,75.26
2023-04-04T08:35:14.860Z,75.53
2023-04-04T08:37:46.020Z,75.62
2023-04-04T08:40:16.685Z,75.94
2023-04-04T08:42:46.036Z,76.32
2023-04-04T08:45:18.459Z,74.23
2023-04-04T08:47:50.100Z,75.14
2023-04-04T08:50:20.230Z,75.26
2023-04-04T08:52:49.168Z,75.82
2023-04-04T08:55:20.090Z,75.12
2023-04-04T08:57:49.194Z,75.38
2023-04-04T09:00:21.384Z,75.10
2023-04-04T09:02:58.714Z,76.14
2023-04-04T09:05:28.175Z,75.43
2023-04-04T09:07:57.426Z,75.13
2023-04-04T09:10:29.245Z,74.73
2023-04-04T09:13:12.362Z,74.52
2023-04-04T09:15:49.113Z,73.68
2023-04-04T09:18:18.188Z,73.27
2023-04-04T09:20:47.773Z,73.33
2023-04-04T09:23:17.486Z,73.71
2023-04-04T09:26:03.331Z,73.73
2023-04-04T09:28:33.310Z,72.96
2023-04-04T09:31:04.824Z,71.77
2023-04-04T09:33:35.110Z,71.90
2023-04-04T09:36:07.949Z,71.35
2023-04-04T09:38:40.358Z,71.65
2023-04-04T09:41:10.863Z,71.30
2023-04-04T09:43:41.085Z,70.84
2023-04-04T09:46:10.524Z,69.96
2023-04-04T09:48:39.059Z,70.31
2023-04-04T09:51:12.879Z,69.32
2023-04-04T09:53:42.093Z,68.83
2023-04-04T09:56:12.781Z,68.72
2023-04-04T09:58:52.473Z,68.00
2023-04-04T10:01:30.188Z,67.16
2023-04-04T10:03:59.619Z,66.93
2023-04-04T10:06:28.849Z,65.95
2023-04-04T10:08:58.467Z,65.61
2023-04-04T10:11:33.429Z,66.29
2023-04-04T10:14:03.777Z,65.26
2023-04-04T10:16:34.355Z,65.17
2023-04-04T10:19:04.906Z,64.34
2023-04-04T10:21:33.633Z,64.49
2023-04-04T10:24:09.161Z,64.70
2023-04-04T10:26:39.134Z,64.68
2023-04-04T10:29:07.668Z,64.09
2023-04-04T10:31:43.630Z,63.84
2023-04-04T10:34:21.684Z,63.65
2023-04-04T10:36:53.359Z,63.48
2023-04-04T10:39:28.136Z,64.86
2023-04-04T10:41:58.694Z,67.94
2023-04-04T10:44:34.153Z,65.15
2023-04-04T10:47:14.557Z,64.74
2023-04-04T10:49:46.161Z,63.80
2023-04-04T10:52:16.884Z,63.71
2023-04-04T10:54:46.148Z,61.45
2023-04-04T10:57:17.528Z,61.71
2023-04-04T10:59:58.962Z,62.39
2023-04-04T11:02:51.207Z,62.69
2023-04-04T11:05:26.200Z,60.89
2023-04-04T11:08:07.324Z,64.47
2023-04-04T11:10:38.089Z,59.85
2023-04-04T11:13:16.386Z,61.13
2023-04-04T11:15:55.694Z,58.13
2023-04-04T11:18:45.502Z,58.35
2023-04-04T11:21:16.859Z,58.60
2023-04-04T11:24:16.933Z,60.39
2023-04-04T11:26:47.082Z,57.82
2023-04-04T11:29:44.701Z,58.39
2023-04-04T11:32:28.500Z,58.95
2023-04-04T11:34:58.924Z,57.38
2023-04-04T11:37:28.403Z,57.19
2023-04-04T11:40:00.135Z,57.21
2023-04-04T11:42:38.456Z,57.72
2023-04-04T11:45:12.036Z,56.31
2023-04-04T11:47:42.172Z,55.30
2023-04-04T11:50:13.551Z,55.24
2023-04-04T11:52:43.773Z,54.80
2023-04-04T11:55:17.311Z,54.89
2023-04-04T11:57:47.538Z,54.63
2023-04-04T12:00:31.070Z,56.00
2023-04-04T12:02:59.773Z,54.36
2023-04-04T12:05:29.249Z,53.89
2023-04-04T12:08:00.112Z,53.56
2023-04-04T12:10:33.327Z,53.40
2023-04-04T12:13:02.666Z,53.54
2023-04-04T12:15:33.269Z,52.91
2023-04-04T12:18:02.443Z,52.76
2023-04-04T12:20:32.238Z,51.83
2023-04-04T12:23:00.827Z,51.81
2023-04-04T12:25:33.825Z,52.33
2023-04-04T12:28:06.658Z,51.61
2023-04-04T12:30:36.418Z,51.62
2023-04-04T12:33:05.938Z,51.15
2023-04-04T12:35:34.492Z,51.51
2023-04-04T12:38:07.262Z,51.24
2023-04-04T12:40:38.781Z,50.67
2023-04-04T12:43:08.929Z,50.79
2023-04-04T12:45:42.366Z,50.32
2023-04-04T12:48:14.191Z,49.91
2023-04-04T12:50:53.458Z,51.28
2023-04-04T12:55:56.351Z,49.51
2023-04-04T12:58:27.705Z,49.21
2023-04-04T13:01:01.908Z,49.58
2023-04-04T13:03:30.683Z,48.90
2023-04-04T13:06:00.863Z,48.78
2023-04-04T13:08:29.784Z,48.70
2023-04-04T13:11:04.580Z,49.20
2023-04-04T13:13:38.557Z,49.02
2023-04-04T13:16:09.740Z,48.02
2023-04-04T13:18:42.351Z,47.69
2023-04-04T13:21:13.142Z,47.43
2023-04-04T13:23:42.574Z,47.43
2023-04-04T13:26:11.758Z,46.83
2023-04-04T13:28:41.112Z,46.92
2023-04-04T13:31:11.737Z,46.76
2023-04-04T13:33:40.211Z,46.71
2023-04-04T13:36:09.205Z,46.34
2023-04-04T13:38:37.698Z,46.16
2023-04-04T13:41:06.250Z,46.56
2023-04-04T13:43:34.832Z,46.63
2023-04-04T13:46:03.421Z,46.00
2023-04-04T13:48:33.345Z,46.26
2023-04-04T13:51:01.904Z,46.31
2023-04-04T13:53:30.419Z,45.87
2023-04-04T13:56:16.687Z,45.84
2023-04-04T13:58:46.319Z,45.38
2023-04-04T14:01:14.907Z,45.22
2023-04-04T14:03:44.548Z,45.13
2023-04-04T14:06:13.413Z,45.31
2023-04-04T14:08:41.573Z,44.71
2023-04-04T14:11:09.837Z,44.34
2023-04-04T14:13:38.624Z,44.31
2023-04-04T14:16:09.791Z,44.49
2023-04-04T14:18:38.158Z,44.49
2023-04-04T14:21:08.208Z,44.21
2023-04-04T14:23:36.746Z,43.93
2023-04-04T14:26:05.422Z,44.00
2023-04-04T14:28:33.690Z,44.19
2023-04-04T14:31:02.000Z,43.68
2023-04-04T14:33:30.837Z,43.51
2023-04-04T14:35:59.344Z,43.38
2023-04-04T14:38:28.906Z,42.92
2023-04-04T14:40:57.470Z,43.15
2023-04-04T14:43:25.814Z,43.12
2023-04-04T14:45:54.386Z,42.92
2023-04-04T14:48:22.674Z,42.94
2023-04-04T14:50:51.156Z,42.64
2023-04-04T14:53:19.448Z,42.79
2023-04-04T14:55:49.045Z,42.77
2023-04-04T14:58:17.692Z,42.89
2023-04-04T15:00:46.980Z,43.10
2023-04-04T15:03:15.766Z,42.77
2023-04-04T15:05:44.110Z,43.15
2023-04-04T15:08:12.676Z,43.04
2023-04-04T15:10:41.388Z,42.82
2023-04-04T15:13:11.219Z,42.75
2023-04-04T15:15:39.891Z,42.99
2023-04-04T15:18:08.340Z,42.85
2023-04-04T15:20:40.002Z,42.97
2023-04-04T15:23:08.668Z,42.86
2023-04-04T15:25:37.409Z,43.29
2023-04-04T15:28:05.817Z,43.17
2023-04-04T15:30:35.469Z,43.60
2023-04-04T15:33:03.814Z,43.66
2023-04-04T15:35:32.386Z,43.72
2023-04-04T15:38:00.930Z,44.15
2023-04-04T15:40:29.176Z,44.26
2023-04-04T15:42:57.904Z,44.16
2023-04-04T15:45:27.279Z,44.32
2023-04-04T15:47:56.950Z,44.19
2023-04-04T15:50:25.430Z,44.61
2023-04-04T15:52:54.362Z,44.55
2023-04-04T15:55:22.871Z,44.89
2023-04-04T15:57:51.379Z,46.12
2023-04-04T16:00:20.166Z,46.84
2023-04-04T16:02:48.735Z,47.47
2023-04-04T16:05:18.556Z,47.71
2023-04-04T16:07:47.081Z,47.27
2023-04-04T16:10:15.442Z,47.19
2023-04-04T16:12:44.251Z,46.68
2023-04-04T16:15:13.406Z,46.50
2023-04-04T16:17:41.954Z,45.97
2023-04-04T16:20:11.947Z,45.67
2023-04-04T16:22:41.501Z,45.84
2023-04-04T16:25:10.559Z,45.61
2023-04-04T16:27:39.113Z,45.67
2023-04-04T16:30:09.039Z,45.56
2023-04-04T16:32:37.600Z,45.95
2023-04-04T16:35:07.016Z,46.05
2023-04-04T16:37:35.313Z,46.36
2023-04-04T16:40:05.520Z,46.69
2023-04-04T16:42:34.356Z,47.11
2023-04-04T16:45:02.851Z,47.30
2023-04-04T16:47:31.424Z,47.64
2023-04-04T16:49:59.946Z,47.60
2023-04-04T16:52:28.803Z,47.95
2023-04-04T16:54:57.306Z,47.92
2023-04-04T16:57:27.681Z,48.56
2023-04-04T16:59:56.182Z,48.54
2023-04-04T17:02:24.789Z,48.95
2023-04-04T17:04:53.510Z,48.96
2023-04-04T17:07:22.111Z,48.96
2023-04-04T17:09:51.444Z,49.04
2023-04-04T17:12:20.035Z,49.13
2023-04-04T17:14:49.611Z,49.40
2023-04-04T17:17:18.338Z,49.71
2023-04-04T17:19:47.227Z,49.95
2023-04-04T17:22:16.057Z,50.09
2023-04-04T17:24:44.728Z,50.47
2023-04-04T17:27:13.283Z,50.74
2023-04-04T17:29:41.805Z,51.25
2023-04-04T17:32:11.800Z,51.31
2023-04-04T17:34:40.431Z,51.34
2023-04-04T17:37:11.447Z,51.54
2023-04-04T17:39:40.156Z,51.75
2023-04-04T17:42:08.838Z,52.11
2023-04-04T17:44:38.078Z,52.07
2023-04-04T17:47:08.371Z,52.50
2023-04-04T17:49:39.394Z,52.73
2023-04-04T17:52:08.777Z,52.59
2023-04-04T17:54:37.507Z,52.84
2023-04-04T17:57:07.217Z,52.90
2023-04-04T17:59:36.157Z,53.39
2023-04-04T18:02:04.829Z,53.39
2023-04-04T18:04:33.561Z,53.68
2023-04-04T18:07:03.555Z,53.80
2023-04-04T18:09:32.101Z,54.10
2023-04-04T18:12:01.978Z,54.30
2023-04-04T18:14:30.556Z,54.56
2023-04-04T18:16:59.062Z,54.75
2023-04-04T18:19:28.900Z,54.92
2023-04-04T18:21:59.991Z,55.28
2023-04-04T18:24:30.108Z,55.56
2023-04-04T18:26:59.457Z,55.69
2023-04-04T18:29:30.673Z,55.89
2023-04-04T18:32:01.779Z,56.40
2023-04-04T18:34:30.484Z,56.46
2023-04-04T18:36:58.977Z,56.42
2023-04-04T18:39:29.017Z,56.65
2023-04-04T18:41:57.637Z,56.95
2023-04-04T18:44:27.025Z,57.10
2023-04-04T18:46:58.135Z,57.21
2023-04-04T18:49:28.795Z,57.50
2023-04-04T18:51:57.464Z,57.54
2023-04-04T18:54:27.049Z,57.75
2023-04-04T18:56:57.557Z,58.04
2023-04-04T18:59:26.607Z,58.22
2023-04-04T19:01:56.323Z,58.30
2023-04-04T19:04:25.208Z,58.73
2023-04-04T19:06:55.405Z,58.89
2023-04-04T19:09:24.063Z,59.08
2023-04-04T19:11:56.107Z,59.48
2023-04-04T19:14:24.659Z,59.39
2023-04-04T19:16:54.019Z,59.55
2023-04-04T19:19:22.729Z,59.66
2023-04-04T19:21:51.234Z,59.89
2023-04-04T19:24:19.498Z,59.92
2023-04-04T19:26:48.065Z,60.20
2023-04-04T19:29:22.080Z,60.53
2023-04-04T19:31:50.675Z,60.81
2023-04-04T19:34:20.492Z,60.89
2023-04-04T19:36:51.578Z,61.11
2023-04-04T19:39:22.426Z,61.32
2023-04-04T19:41:50.954Z,61.68
2023-04-04T19:44:22.130Z,61.82
2023-04-04T19:46:52.924Z,61.89
2023-04-04T19:49:27.937Z,62.22
2023-04-04T19:51:58.523Z,62.28
2023-04-04T19:54:28.613Z,62.44
2023-04-04T19:57:02.601Z,62.42
2023-04-04T20:00:01.779Z,62.85
2023-04-04T20:03:06.671Z,63.36
2023-04-04T20:06:02.090Z,63.71
2023-04-04T20:08:44.021Z,63.69
2023-04-04T20:11:14.249Z,63.66
2023-04-04T20:13:43.829Z,63.64
2023-04-04T20:16:18.092Z,64.03
2023-04-04T20:18:47.500Z,63.94
2023-04-04T20:21:17.538Z,63.83
2023-04-04T20:23:53.031Z,64.37
2023-04-04T20:26:54.590Z,64.55
2023-04-04T20:29:26.309Z,64.37
2023-04-04T20:31:58.271Z,64.72
2023-04-04T20:34:49.730Z,65.19
2023-04-04T20:37:21.934Z,65.16
2023-04-04T20:39:54.633Z,65.08
2023-04-04T20:42:40.266Z,65.43
2023-04-04T20:45:38.253Z,65.84
2023-04-04T20:48:08.561Z,65.27
2023-04-04T20:50:46.233Z,65.58
2023-04-04T20:53:21.033Z,65.49
2023-04-04T20:55:51.449Z,65.67
2023-04-04T20:58:29.045Z,65.60
2023-04-04T21:00:59.060Z,65.71
2023-04-04T21:03:37.595Z,65.81
2023-04-04T21:06:15.967Z,65.83
2023-04-04T21:08:46.849Z,65.58
2023-04-04T21:11:23.122Z,65.84
2023-04-04T21:13:51.868Z,65.47
2023-04-04T21:16:23.524Z,65.93
2023-04-04T21:18:58.741Z,66.16
2023-04-04T21:21:27.609Z,65.80
2023-04-04T21:23:57.725Z,65.99
2023-04-04T21:26:34.400Z,66.40
2023-04-04T21:29:05.245Z,66.09
2023-04-04T21:31:41.303Z,66.78
2023-04-04T21:34:14.792Z,66.61
2023-04-04T21:36:44.281Z,67.06
2023-04-04T21:39:15.021Z,67.06
2023-04-04T21:41:45.822Z,67.38
2023-04-04T21:44:14.316Z,67.54
2023-04-04T21:46:43.358Z,67.42
2023-04-04T21:49:13.105Z,67.19
2023-04-04T21:51:41.737Z,67.35
2023-04-04T21:54:10.347Z,67.27
2023-04-04T21:56:39.062Z,67.17
2023-04-04T21:59:10.544Z,67.46
2023-04-04T22:01:40.685Z,67.29
2023-04-04T22:04:09.519Z,67.55
2023-04-04T22:06:39.081Z,67.12
2023-04-04T22:09:07.617Z,67.35
2023-04-04T22:11:42.671Z,67.29
2023-04-04T22:14:17.249Z,67.42
2023-04-04T22:16:48.433Z,66.93
2023-04-04T22:19:17.040Z,67.33
2023-04-04T22:21:48.173Z,67.26
2023-04-04T22:24:17.843Z,66.86
2023-04-04T22:26:47.283Z,67.25
2023-04-04T22:29:15.928Z,66.96
2023-04-04T22:31:44.628Z,67.15
2023-04-04T22:34:14.988Z,67.21
2023-04-04T22:36:44.462Z,67.03
2023-04-04T22:39:16.187Z,67.04
2023-04-04T22:41:45.438Z,67.38
2023-04-04T22:44:14.037Z,67.33
2023-04-04T22:46:42.888Z,67.74
2023-04-04T22:49:13.252Z,67.98
2023-04-04T22:51:45.624Z,67.97
2023-04-04T22:54:17.161Z,68.06
2023-04-04T22:56:46.321Z,68.32
2023-04-04T22:59:14.907Z,68.62
2023-04-04T23:01:43.618Z,68.43
2023-04-04T23:04:12.268Z,69.03
2023-04-04T23:06:41.164Z,68.97
2023-04-04T23:09:09.780Z,69.16
2023-04-04T23:11:40.330Z,69.17
2023-04-04T23:14:09.836Z,69.06
2023-04-04T23:16:38.609Z,69.14
2023-04-04T23:19:07.553Z,69.49
2023-04-04T23:21:37.336Z,69.38
2023-04-04T23:24:06.887Z,69.58
2023-04-04T23:26:35.314Z,69.74
2023-04-04T23:29:05.652Z,69.83
2023-04-04T23:31:35.366Z,69.90
2023-04-04T23:34:03.913Z,70.04
2023-04-04T23:36:32.700Z,70.03
2023-04-04T23:39:01.885Z,69.96
2023-04-04T23:41:30.432Z,70.16
2023-04-04T23:43:58.931Z,70.18
2023-04-04T23:46:30.344Z,70.36
2023-04-04T23:48:59.010Z,70.62
2023-04-04T23:51:30.353Z,70.63
2023-04-04T23:53:59.586Z,70.50
2023-04-04T23:56:27.766Z,70.63
2023-04-04T23:58:56.430Z,70.74
